Time;durP1;ratioP1;P1;durP2;ratioP2;P2;SDS_P1;SDS_P2;PMS_P1;PMS_P2;Temp;Humidity;BMP_temperature;BMP_pressure;BME280_temperature;BME280_humidity;BME280_pressure;Samples;Min_cycle;Max_cycle;Signal;HPM_P1;HPM_P2
2023/08/14 00:02:11;;;;;;;;;;;;;;;14.30;100.00;101579.84;5011459;28;20631;-76
2023/08/14 00:04:36;;;;;;;;;;;;;;;14.21;100.00;101584.16;4977084;28;19971;-76
2023/08/14 00:07:02;;;;;;;;;;;;;;;14.21;100.00;101586.00;5010778;28;19925;-76
2023/08/14 00:09:27;;;;;;;;;;;;;;;14.20;100.00;101586.97;4993569;28;19922;-76
2023/08/14 00:11:52;;;;;;;;;;;;;;;14.22;100.00;101587.72;4995629;28;19983;-76
2023/08/14 00:14:17;;;;;;;;;;;;;;;14.25;100.00;101580.25;5007950;28;20320;-76
2023/08/14 00:16:43;;;;;;;;;;;;;;;14.30;100.00;101590.66;4994560;28;19922;-76
2023/08/14 00:19:08;;;;;;;;;;;;;;;14.33;100.00;101589.53;4981179;28;19964;-76
2023/08/14 00:21:34;;;;;;;;;;;;;;;14.29;100.00;101580.84;4992784;28;20027;-76
2023/08/14 00:23:59;;;;;;;;;;;;;;;14.22;100.00;101587.72;5006807;28;20185;-76
2023/08/14 00:26:24;;;;;;;;;;;;;;;14.12;100.00;101581.38;5012933;28;20028;-76
2023/08/14 00:28:49;;;;;;;;;;;;;;;14.06;100.00;101580.00;4993779;28;19921;-75
2023/08/14 00:31:16;;;;;;;;;;;;;;;13.96;100.00;101582.59;5008535;28;19925;-75
2023/08/14 00:33:42;;;;;;;;;;;;;;;13.92;100.00;101573.88;4992717;28;20354;-76
2023/08/14 00:36:07;;;;;;;;;;;;;;;13.81;100.00;101568.47;4989784;28;20181;-76
2023/08/14 00:38:32;;;;;;;;;;;;;;;13.70;100.00;101571.19;5011129;28;20009;-76
2023/08/14 00:40:57;;;;;;;;;;;;;;;13.68;100.00;101571.31;4992431;28;19926;-76
2023/08/14 00:43:23;;;;;;;;;;;;;;;13.70;100.00;101568.50;5008505;28;20067;-76
2023/08/14 00:45:49;;;;;;;;;;;;;;;13.74;100.00;101556.47;5006179;28;19929;-76
2023/08/14 00:48:14;;;;;;;;;;;;;;;13.75;100.00;101571.69;5009317;28;19925;-76
2023/08/14 00:50:39;;;;;;;;;;;;;;;13.74;100.00;101567.28;4986739;28;20960;-76
2023/08/14 00:53:04;;;;;;;;;;;;;;;13.72;100.00;101564.69;5005168;28;19922;-76
2023/08/14 00:55:30;;;;;;;;;;;;;;;13.70;100.00;101565.81;4971367;28;19949;-76
2023/08/14 00:57:55;;;;;;;;;;;;;;;13.69;100.00;101566.78;5006932;28;19961;-76
2023/08/14 01:00:21;;;;;;;;;;;;;;;13.63;100.00;101566.28;5008134;28;20319;-76
2023/08/14 01:02:46;;;;;;;;;;;;;;;13.66;100.00;101570.56;5010047;28;19925;-76
2023/08/14 01:05:12;;;;;;;;;;;;;;;13.60;100.00;101571.06;5002405;28;19925;-76
2023/08/14 01:07:37;;;;;;;;;;;;;;;13.56;100.00;101573.13;4990647;28;19959;-76
2023/08/14 01:10:03;;;;;;;;;;;;;;;13.54;100.00;101572.38;5006805;28;19968;-75
2023/08/14 01:12:47;;;;;;;;;;;;;;;13.53;100.00;101567.97;4992673;28;20359;-76
2023/08/14 01:15:17;;;;;;;;;;;;;;;13.56;100.00;101567.72;5009007;28;20493;-76
2023/08/14 01:18:09;;;;;;;;;;;;;;;13.65;100.00;101561.63;5010502;28;19973;-76
2023/08/14 01:20:35;;;;;;;;;;;;;;;13.74;100.00;101560.03;5003788;28;19922;-76
2023/08/14 01:23:09;;;;;;;;;;;;;;;13.76;100.00;101555.38;5010553;28;19984;-76
2023/08/14 01:25:37;;;;;;;;;;;;;;;13.76;100.00;101563.47;5007727;28;19991;-76
2023/08/14 01:28:02;;;;;;;;;;;;;;;13.74;100.00;101551.94;5009903;28;19929;-76
2023/08/14 01:30:27;;;;;;;;;;;;;;;13.73;100.00;101552.91;5006170;28;19956;-76
2023/08/14 01:32:53;;;;;;;;;;;;;;;13.72;100.00;101544.94;4993543;28;20040;-76
2023/08/14 01:35:18;;;;;;;;;;;;;;;13.71;100.00;101549.47;5005806;28;20038;-76
2023/08/14 01:37:44;;;;;;;;;;;;;;;13.70;100.00;101546.91;4990221;28;19979;-76
2023/08/14 01:40:30;;;;;;;;;;;;;;;13.74;100.00;101546.53;4990643;28;19972;-76
2023/08/14 01:43:07;;;;;;;;;;;;;;;13.73;100.00;101539.41;4985556;28;20759;-76
2023/08/14 01:45:32;;;;;;;;;;;;;;;13.75;100.00;101532.06;4991659;28;19925;-76
2023/08/14 01:47:58;;;;;;;;;;;;;;;13.72;100.00;101537.69;4990594;28;19931;-76
2023/08/14 01:50:23;;;;;;;;;;;;;;;13.70;100.00;101530.72;4991588;28;19921;-76
2023/08/14 01:52:48;;;;;;;;;;;;;;;13.71;100.00;101535.13;5007128;28;20309;-76
2023/08/14 01:55:13;;;;;;;;;;;;;;;13.69;100.00;101529.84;5005843;28;20387;-76
2023/08/14 01:57:39;;;;;;;;;;;;;;;13.69;100.00;101535.25;4988228;28;21760;-76
2023/08/14 02:00:07;;;;;;;;;;;;;;;13.71;100.00;101525.19;5008234;28;20314;-76
2023/08/14 02:02:32;;;;;;;;;;;;;;;13.75;100.00;101520.41;4990848;28;19918;-76
2023/08/14 02:04:58;;;;;;;;;;;;;;;13.72;100.00;101518.81;5007849;28;19929;-76
2023/08/14 02:07:23;;;;;;;;;;;;;;;13.70;100.00;101509.13;4989021;28;19965;-76
2023/08/14 02:09:48;;;;;;;;;;;;;;;13.60;100.00;101506.31;4990891;28;20101;-76
2023/08/14 02:12:13;;;;;;;;;;;;;;;13.52;100.00;101506.91;4990325;28;19935;-75
2023/08/14 02:14:39;;;;;;;;;;;;;;;13.47;100.00;101504.59;4990553;28;19925;-76
2023/08/14 02:17:04;;;;;;;;;;;;;;;13.44;100.00;101503.97;5002465;28;20521;-75
2023/08/14 02:19:29;;;;;;;;;;;;;;;13.37;100.00;101503.59;5008347;28;19932;-75
2023/08/14 02:21:54;;;;;;;;;;;;;;;13.34;100.00;101499.28;4993437;28;19992;-75
2023/08/14 02:24:19;;;;;;;;;;;;;;;13.32;100.00;101500.38;4972470;28;19921;-75
2023/08/14 02:26:45;;;;;;;;;;;;;;;13.32;100.00;101495.00;5000087;28;19932;-75
2023/08/14 02:29:10;;;;;;;;;;;;;;;13.30;100.00;101495.09;4990314;28;19925;-75
2023/08/14 02:31:35;;;;;;;;;;;;;;;13.25;100.00;101499.16;5006603;28;20594;-76
2023/08/14 02:34:01;;;;;;;;;;;;;;;13.28;100.00;101494.38;4971291;28;19933;-76
2023/08/14 02:36:27;;;;;;;;;;;;;;;13.18;100.00;101485.31;4989430;28;19944;-76
2023/08/14 02:38:52;;;;;;;;;;;;;;;13.13;100.00;101479.41;5000367;28;19964;-76
2023/08/14 02:41:17;;;;;;;;;;;;;;;13.11;100.00;101476.81;4989394;28;20422;-76
2023/08/14 02:43:43;;;;;;;;;;;;;;;13.06;100.00;101484.44;4988680;28;19921;-76
2023/08/14 02:46:08;;;;;;;;;;;;;;;13.04;100.00;101489.06;4987569;28;19922;-76
2023/08/14 02:48:33;;;;;;;;;;;;;;;13.03;100.00;101490.06;4988386;28;19964;-76
2023/08/14 02:50:58;;;;;;;;;;;;;;;13.03;100.00;101492.75;4988402;28;19953;-76
2023/08/14 02:53:23;;;;;;;;;;;;;;;13.01;100.00;101490.16;5007369;28;19925;-76
2023/08/14 02:55:49;;;;;;;;;;;;;;;13.06;100.00;101495.22;4989661;28;19929;-76
2023/08/14 02:58:15;;;;;;;;;;;;;;;13.18;100.00;101504.19;5006515;28;19952;-75
2023/08/14 03:00:40;;;;;;;;;;;;;;;13.21;100.00;101503.94;5008651;28;20340;-76
2023/08/14 03:03:05;;;;;;;;;;;;;;;13.27;100.00;101500.72;4975862;28;20356;-76
2023/08/14 03:05:30;;;;;;;;;;;;;;;13.38;100.00;101505.28;5004873;28;20248;-75
2023/08/14 03:07:56;;;;;;;;;;;;;;;13.44;100.00;101498.59;4993519;28;20416;-76
2023/08/14 03:10:22;;;;;;;;;;;;;;;13.44;100.00;101502.13;4991127;28;19918;-76
2023/08/14 03:12:47;;;;;;;;;;;;;;;13.43;100.00;101508.50;4972957;28;19922;-76
2023/08/14 03:15:13;;;;;;;;;;;;;;;13.49;100.00;101509.88;4991250;28;19932;-76
2023/08/14 03:17:38;;;;;;;;;;;;;;;13.43;100.00;101505.81;4971222;28;19944;-76
2023/08/14 03:20:04;;;;;;;;;;;;;;;13.42;100.00;101500.53;4974684;28;19921;-76
2023/08/14 03:22:29;;;;;;;;;;;;;;;13.42;100.00;101500.53;5004733;28;19932;-75
2023/08/14 03:24:55;;;;;;;;;;;;;;;13.39;100.00;101498.91;5006478;28;19929;-76
2023/08/14 03:27:20;;;;;;;;;;;;;;;13.37;100.00;101495.50;4974839;28;19921;-76
2023/08/14 03:29:45;;;;;;;;;;;;;;;13.47;100.00;101496.50;4973530;28;20012;-75
2023/08/14 03:32:10;;;;;;;;;;;;;;;13.54;100.00;101498.72;4990705;28;19921;-76
2023/08/14 03:34:36;;;;;;;;;;;;;;;13.57;100.00;101493.91;4990750;28;19927;-75
2023/08/14 03:37:01;;;;;;;;;;;;;;;13.61;100.00;101499.94;4988708;28;19926;-76
2023/08/14 03:39:26;;;;;;;;;;;;;;;13.60;100.00;101492.81;4969702;28;19972;-75
2023/08/14 03:41:51;;;;;;;;;;;;;;;13.51;100.00;101494.41;5005951;28;19921;-76
2023/08/14 03:44:17;;;;;;;;;;;;;;;13.46;100.00;101483.97;4971930;28;19925;-76
2023/08/14 03:46:42;;;;;;;;;;;;;;;13.47;100.00;101484.84;4989620;28;19957;-76
2023/08/14 03:49:07;;;;;;;;;;;;;;;13.45;100.00;101481.44;4991436;28;19980;-76
2023/08/14 03:51:32;;;;;;;;;;;;;;;13.49;100.00;101483.75;5004624;28;20031;-76
2023/08/14 03:53:57;;;;;;;;;;;;;;;13.58;100.00;101494.78;5004484;28;19921;-76
2023/08/14 03:56:23;;;;;;;;;;;;;;;13.56;100.00;101486.81;5006312;28;19957;-76
2023/08/14 03:58:48;;;;;;;;;;;;;;;13.56;100.00;101486.81;5007398;28;19973;-76
2023/08/14 04:01:13;;;;;;;;;;;;;;;13.54;100.00;101486.06;4992346;28;19966;-76
2023/08/14 04:03:38;;;;;;;;;;;;;;;13.46;100.00;101488.53;4992237;28;19917;-76
2023/08/14 04:06:04;;;;;;;;;;;;;;;13.43;100.00;101483.38;5004228;28;19975;-76
2023/08/14 04:08:29;;;;;;;;;;;;;;;13.42;100.00;101476.28;4991704;28;19957;-75
2023/08/14 04:10:55;;;;;;;;;;;;;;;13.37;100.00;101481.13;4994642;28;20009;-75
2023/08/14 04:13:20;;;;;;;;;;;;;;;13.30;100.00;101481.63;5009112;28;20400;-75
2023/08/14 04:15:46;;;;;;;;;;;;;;;13.26;100.00;101474.75;4975118;28;20161;-75
2023/08/14 04:18:11;;;;;;;;;;;;;;;13.19;100.00;101485.16;5010626;28;19926;-75
2023/08/14 04:20:36;;;;;;;;;;;;;;;13.18;100.00;101478.06;4980129;28;19991;-76
2023/08/14 04:23:01;;;;;;;;;;;;;;;13.17;100.00;101481.72;5008888;28;20412;-75
2023/08/14 04:25:28;;;;;;;;;;;;;;;13.11;100.00;101474.13;5010435;28;20345;-75
2023/08/14 04:27:54;;;;;;;;;;;;;;;13.08;100.00;101474.38;4994680;28;19940;-75
2023/08/14 04:30:19;;;;;;;;;;;;;;;13.11;100.00;101470.56;4980329;28;20364;-76
2023/08/14 04:32:44;;;;;;;;;;;;;;;13.17;100.00;101470.94;5012402;28;20291;-76
2023/08/14 04:35:09;;;;;;;;;;;;;;;13.20;100.00;101467.16;4992232;28;20740;-76
2023/08/14 04:37:34;;;;;;;;;;;;;;;13.19;100.00;101473.53;5005565;28;20620;-76
2023/08/14 04:40:00;;;;;;;;;;;;;;;13.20;100.00;101468.00;5008991;28;19940;-76
2023/08/14 04:42:25;;;;;;;;;;;;;;;13.22;100.00;101464.34;4993517;28;19913;-75
2023/08/14 04:44:50;;;;;;;;;;;;;;;13.26;100.00;101455.03;5007369;28;20115;-76
2023/08/14 04:47:15;;;;;;;;;;;;;;;13.30;100.00;101462.75;4975766;28;19921;-75
2023/08/14 04:49:40;;;;;;;;;;;;;;;13.32;100.00;101465.34;5001997;28;20213;-75
2023/08/14 04:52:06;;;;;;;;;;;;;;;13.28;100.00;101453.91;5007756;28;20012;-75
2023/08/14 04:54:32;;;;;;;;;;;;;;;13.37;100.00;101462.25;5004719;28;20688;-75
2023/08/14 04:56:57;;;;;;;;;;;;;;;13.44;100.00;101455.44;4972837;28;20012;-75
2023/08/14 04:59:22;;;;;;;;;;;;;;;13.54;100.00;101458.25;5002659;28;20162;-75
2023/08/14 05:01:47;;;;;;;;;;;;;;;13.58;100.00;101457.03;5003782;28;19921;-76
2023/08/14 05:04:12;;;;;;;;;;;;;;;13.68;100.00;101451.72;5004540;28;20024;-75
2023/08/14 05:06:38;;;;;;;;;;;;;;;13.76;100.00;101444.72;4987118;28;21230;-76
2023/08/14 05:09:03;;;;;;;;;;;;;;;13.85;100.00;101442.25;4987043;28;20346;-75
2023/08/14 05:11:28;;;;;;;;;;;;;;;13.90;100.00;101438.19;5008207;28;19921;-75
2023/08/14 05:13:53;;;;;;;;;;;;;;;13.96;100.00;101442.22;5004226;28;20589;-76
2023/08/14 05:16:19;;;;;;;;;;;;;;;14.07;100.00;101449.41;5007059;28;20365;-76
2023/08/14 05:18:44;;;;;;;;;;;;;;;14.20;100.00;101439.31;4991312;28;20364;-75
2023/08/14 05:21:10;;;;;;;;;;;;;;;14.36;100.00;101438.00;4995138;28;19967;-75
2023/08/14 05:23:35;;;;;;;;;;;;;;;14.51;100.00;101443.97;4990833;28;20973;-76
2023/08/14 05:26:00;;;;;;;;;;;;;;;14.67;100.00;101432.69;4990444;28;20601;-76
2023/08/14 05:28:25;;;;;;;;;;;;;;;14.80;100.00;101428.00;5011522;28;19932;-76
2023/08/14 05:30:51;;;;;;;;;;;;;;;14.94;100.00;101423.22;5011009;28;20052;-75
2023/08/14 05:33:16;;;;;;;;;;;;;;;15.08;100.00;101422.00;5009893;28;20008;-75
2023/08/14 05:35:41;;;;;;;;;;;;;;;15.26;100.00;101433.06;4987565;28;20045;-76
2023/08/14 05:38:06;;;;;;;;;;;;;;;15.43;100.00;101445.09;4978710;28;19925;-75
2023/08/14 05:40:32;;;;;;;;;;;;;;;15.59;100.00;101442.72;5005477;28;19925;-76
2023/08/14 05:43:06;;;;;;;;;;;;;;;15.74;100.00;101448.59;5006903;28;20214;-76
2023/08/14 05:45:31;;;;;;;;;;;;;;;15.89;100.00;101443.69;5003053;28;20336;-76
2023/08/14 05:47:57;;;;;;;;;;;;;;;16.04;100.00;101449.53;4989035;28;20021;-76
2023/08/14 05:50:22;;;;;;;;;;;;;;;16.21;100.00;101439.00;5010823;28;20287;-75
2023/08/14 05:52:47;;;;;;;;;;;;;;;16.29;100.00;101436.44;5008377;28;19952;-76
2023/08/14 05:55:12;;;;;;;;;;;;;;;16.32;100.00;101451.53;5005468;28;19987;-76
2023/08/14 05:57:38;;;;;;;;;;;;;;;16.37;100.00;101449.28;4991459;28;20171;-75
2023/08/14 06:00:03;;;;;;;;;;;;;;;16.43;100.00;101455.97;4991682;28;19932;-75
2023/08/14 06:02:29;;;;;;;;;;;;;;;16.43;100.00;101461.38;4995408;28;20034;-75
2023/08/14 06:04:54;;;;;;;;;;;;;;;16.45;100.00;101462.97;5012283;28;19932;-75
2023/08/14 06:07:19;;;;;;;;;;;;;;;16.50;100.00;101462.53;4990355;28;19949;-75
2023/08/14 06:09:45;;;;;;;;;;;;;;;16.53;100.00;101459.53;4992200;28;20012;-76
2023/08/14 06:12:10;;;;;;;;;;;;;;;16.55;100.00;101464.84;4979888;28;19917;-75
2023/08/14 06:14:35;;;;;;;;;;;;;;;16.54;100.00;101474.81;4992838;28;19925;-75
2023/08/14 06:17:02;;;;;;;;;;;;;;;16.57;100.00;101485.38;5009605;28;20397;-76
2023/08/14 06:19:28;;;;;;;;;;;;;;;16.56;100.00;101483.66;4992317;28;20083;-75
2023/08/14 06:21:54;;;;;;;;;;;;;;;16.59;100.00;101482.50;4982040;28;20045;-75
2023/08/14 06:24:21;;;;;;;;;;;;;;;16.63;100.00;101479.38;5014459;28;19928;-75
2023/08/14 06:26:46;;;;;;;;;;;;;;;16.73;100.00;101473.94;4997172;28;20420;-75
2023/08/14 06:29:11;;;;;;;;;;;;;;;16.75;100.00;101463.81;4990307;28;20243;-77
2023/08/14 06:31:36;;;;;;;;;;;;;;;16.89;100.00;101480.59;4996138;28;19971;-75
2023/08/14 06:34:02;;;;;;;;;;;;;;;16.95;100.00;101482.75;5003989;28;19933;-75
2023/08/14 06:36:27;;;;;;;;;;;;;;;17.04;100.00;101481.03;5009684;28;19925;-75
2023/08/14 06:38:52;;;;;;;;;;;;;;;17.10;100.00;101480.47;4981627;28;19963;-75
2023/08/14 06:41:17;;;;;;;;;;;;;;;17.17;100.00;101472.59;4988824;28;19975;-75
2023/08/14 06:43:44;;;;;;;;;;;;;;;17.24;100.00;101465.56;4991262;28;19926;-76
2023/08/14 06:46:09;;;;;;;;;;;;;;;17.36;100.00;101471.66;4998207;28;20288;-75
2023/08/14 06:48:35;;;;;;;;;;;;;;;17.52;100.00;101471.88;5010328;28;19922;-75
2023/08/14 06:51:00;;;;;;;;;;;;;;;17.76;100.00;101469.63;4987163;28;20402;-75
2023/08/14 06:53:25;;;;;;;;;;;;;;;17.97;100.00;101464.75;4992977;28;20000;-75
2023/08/14 06:55:50;;;;;;;;;;;;;;;18.19;100.00;101468.06;4978177;28;20092;-75
2023/08/14 06:58:15;;;;;;;;;;;;;;;18.25;100.00;101467.47;5008970;28;19929;-76
2023/08/14 07:00:41;;;;;;;;;;;;;;;18.39;100.00;101463.34;5008818;28;20335;-75
2023/08/14 07:03:06;;;;;;;;;;;;;;;18.49;100.00;101446.09;4976578;28;20366;-75
2023/08/14 07:05:31;;;;;;;;;;;;;;;18.49;100.00;101444.22;4991191;28;20296;-76
2023/08/14 07:07:56;;;;;;;;;;;;;;;18.52;100.00;101448.50;5006115;28;20247;-75
2023/08/14 07:10:21;;;;;;;;;;;;;;;18.56;100.00;101448.03;4992587;28;20437;-75
2023/08/14 07:12:48;;;;;;;;;;;;;;;18.74;100.00;101452.56;4979545;28;20376;-75
2023/08/14 07:15:13;;;;;;;;;;;;;;;18.94;100.00;101455.94;4990493;28;20020;-76
2023/08/14 07:17:38;;;;;;;;;;;;;;;19.07;100.00;101447.41;4977734;28;20436;-75
2023/08/14 07:20:06;;;;;;;;;;;;;;;19.34;100.00;101445.50;5003915;28;20368;-76
2023/08/14 07:22:32;;;;;;;;;;;;;;;19.54;100.00;101443.38;5007883;28;19980;-76
2023/08/14 07:24:57;;;;;;;;;;;;;;;19.67;100.00;101442.91;5002733;28;19925;-75
2023/08/14 07:27:22;;;;;;;;;;;;;;;19.64;100.00;101437.78;5005031;28;20053;-75
2023/08/14 07:29:47;;;;;;;;;;;;;;;19.71;100.00;101438.84;4992531;28;19965;-74
2023/08/14 07:32:12;;;;;;;;;;;;;;;19.61;100.00;101430.78;4990459;28;19921;-74
2023/08/14 07:34:38;;;;;;;;;;;;;;;19.50;100.00;101428.38;4976170;28;20379;-74
2023/08/14 07:37:03;;;;;;;;;;;;;;;19.49;100.00;101437.56;4988398;28;20402;-74
2023/08/14 07:39:28;;;;;;;;;;;;;;;19.53;100.00;101441.66;4988903;28;19926;-73
2023/08/14 07:41:53;;;;;;;;;;;;;;;19.55;100.00;101439.63;4973424;28;19927;-73
2023/08/14 07:44:19;;;;;;;;;;;;;;;19.64;100.00;101433.19;5005655;28;19926;-73
2023/08/14 07:46:44;;;;;;;;;;;;;;;19.74;100.00;101437.66;5007502;28;19928;-74
2023/08/14 07:49:09;;;;;;;;;;;;;;;19.76;100.00;101446.50;4995437;28;19921;-74
2023/08/14 07:51:35;;;;;;;;;;;;;;;19.93;100.00;101447.44;4994388;28;19917;-74
2023/08/14 07:54:00;;;;;;;;;;;;;;;19.75;100.00;101447.53;4994343;28;19921;-75
2023/08/14 07:56:25;;;;;;;;;;;;;;;19.59;100.00;101460.09;4979072;28;19932;-74
2023/08/14 07:58:50;;;;;;;;;;;;;;;19.57;100.00;101463.97;4977556;28;19975;-74
2023/08/14 08:01:15;;;;;;;;;;;;;;;19.60;100.00;101458.19;4992963;28;19992;-74
2023/08/14 08:03:41;;;;;;;;;;;;;;;19.79;100.00;101457.91;4977966;28;19921;-74
2023/08/14 08:06:06;;;;;;;;;;;;;;;19.97;100.00;101459.72;4991438;28;19918;-74
2023/08/14 08:08:31;;;;;;;;;;;;;;;20.22;100.00;101457.88;5010338;28;19932;-75
2023/08/14 08:10:56;;;;;;;;;;;;;;;20.36;100.00;101464.53;4978946;28;19918;-74
2023/08/14 08:13:21;;;;;;;;;;;;;;;20.55;100.00;101467.94;4995986;28;19917;-74
2023/08/14 08:15:47;;;;;;;;;;;;;;;20.59;100.00;101461.13;4991552;28;19932;-77
2023/08/14 08:18:12;;;;;;;;;;;;;;;20.56;100.00;101453.28;4978105;28;19961;-78
2023/08/14 08:20:37;;;;;;;;;;;;;;;20.57;100.00;101449.53;4993980;28;20181;-72
2023/08/14 08:23:03;;;;;;;;;;;;;;;20.70;100.00;101453.63;5010335;28;19925;-74
2023/08/14 08:25:29;;;;;;;;;;;;;;;20.71;100.00;101450.72;4982515;28;19973;-75
2023/08/14 08:27:54;;;;;;;;;;;;;;;20.89;100.00;101445.13;5008815;28;20594;-75
2023/08/14 08:30:19;;;;;;;;;;;;;;;20.98;100.00;101445.94;4991658;28;20508;-76
2023/08/14 08:32:44;;;;;;;;;;;;;;;21.24;100.00;101434.81;4975284;28;20352;-75
2023/08/14 08:35:10;;;;;;;;;;;;;;;21.36;100.00;101435.28;5011348;28;19917;-76
2023/08/14 08:37:35;;;;;;;;;;;;;;;21.47;100.00;101436.75;5008487;28;20721;-75
2023/08/14 08:40:00;;;;;;;;;;;;;;;21.60;100.00;101436.19;4977687;28;19933;-77
2023/08/14 08:42:25;;;;;;;;;;;;;;;21.50;100.00;101428.22;5006423;28;20379;-77
2023/08/14 08:44:50;;;;;;;;;;;;;;;21.62;100.00;101427.81;4992094;28;19921;-74
2023/08/14 08:47:16;;;;;;;;;;;;;;;21.96;100.00;101422.00;4991314;28;19964;-77
2023/08/14 08:49:42;;;;;;;;;;;;;;;22.21;100.00;101424.56;4995047;28;19928;-75
2023/08/14 08:52:07;;;;;;;;;;;;;;;22.18;100.00;101411.25;4989820;28;19921;-76
2023/08/14 08:54:32;;;;;;;;;;;;;;;22.22;100.00;101415.34;4997998;28;19928;-77
2023/08/14 08:56:58;;;;;;;;;;;;;;;22.21;100.00;101416.38;4993600;28;19925;-74
2023/08/14 08:59:23;;;;;;;;;;;;;;;22.44;100.00;101399.13;5007839;28;19925;-77
2023/08/14 09:01:48;;;;;;;;;;;;;;;22.62;100.00;101401.50;5007466;28;19948;-76
2023/08/14 09:04:14;;;;;;;;;;;;;;;22.77;100.00;101402.38;4998581;28;19964;-74
2023/08/14 09:06:39;;;;;;;;;;;;;;;22.94;100.00;101395.88;4975209;28;20407;-74
2023/08/14 09:09:06;;;;;;;;;;;;;;;22.90;100.00;101406.38;4989403;28;19965;-78
2023/08/14 09:11:31;;;;;;;;;;;;;;;22.91;100.00;101397.94;5006763;28;20876;-75
2023/08/14 09:13:56;;;;;;;;;;;;;;;23.13;100.00;101399.94;5006357;28;20360;-77
2023/08/14 09:16:23;;;;;;;;;;;;;;;23.32;100.00;101398.53;4974968;28;19925;-76
2023/08/14 09:18:48;;;;;;;;;;;;;;;23.17;100.00;101390.31;4988882;28;20382;-79
2023/08/14 09:21:13;;;;;;;;;;;;;;;23.33;100.00;101394.75;4973202;28;19921;-77
2023/08/14 09:23:39;;;;;;;;;;;;;;;23.40;100.00;101390.22;4991054;28;19928;-75
2023/08/14 09:26:04;;;;;;;;;;;;;;;23.48;100.00;101397.47;4991997;28;20409;-75
2023/08/14 09:28:30;;;;;;;;;;;;;;;23.63;100.00;101403.78;5002720;28;20600;-78
2023/08/14 09:31:08;;;;;;;;;;;;;;;23.50;100.00;101392.66;5010514;28;20342;-77
2023/08/14 09:33:34;;;;;;;;;;;;;;;23.43;100.00;101392.56;4991834;28;20153;-75
2023/08/14 09:35:59;;;;;;;;;;;;;;;23.34;100.00;101394.56;5008314;28;20007;-79
2023/08/14 09:38:24;;;;;;;;;;;;;;;23.31;100.00;101384.00;5006005;28;19925;-75
2023/08/14 09:40:54;;;;;;;;;;;;;;;23.45;100.00;101395.97;4991110;28;19989;-77
2023/08/14 09:43:19;;;;;;;;;;;;;;;23.23;100.00;101396.94;4986760;28;19921;-80
2023/08/14 09:45:46;;;;;;;;;;;;;;;23.40;100.00;101400.34;5008098;28;20281;-74
2023/08/14 09:48:11;;;;;;;;;;;;;;;23.64;100.00;101405.47;4987500;28;19964;-77
2023/08/14 09:50:36;;;;;;;;;;;;;;;23.85;100.00;101409.28;5008264;28;20347;-77
2023/08/14 09:53:02;;;;;;;;;;;;;;;24.01;100.00;101405.47;5003569;28;20340;-74
2023/08/14 09:55:27;;;;;;;;;;;;;;;24.04;100.00;101409.72;4969461;28;20423;-75
2023/08/14 09:57:53;;;;;;;;;;;;;;;23.71;100.00;101415.66;5007322;28;19932;-78
2023/08/14 10:00:18;;;;;;;;;;;;;;;23.93;100.00;101411.06;5008767;28;19929;-76
2023/08/14 10:02:44;;;;;;;;;;;;;;;23.79;100.00;101408.19;4985062;28;20456;-74
2023/08/14 10:05:09;;;;;;;;;;;;;;;24.08;98.20;101402.81;5003127;28;19928;-74
2023/08/14 10:07:34;;;;;;;;;;;;;;;24.47;100.00;101397.88;4992562;28;19926;-78
2023/08/14 10:09:59;;;;;;;;;;;;;;;24.31;97.18;101404.47;4972794;28;19921;-74
2023/08/14 10:12:28;;;;;;;;;;;;;;;24.34;92.11;101401.34;5006646;28;19940;-75
2023/08/14 10:14:57;;;;;;;;;;;;;;;24.49;96.06;101398.53;5004708;28;19925;-76
2023/08/14 10:17:25;;;;;;;;;;;;;;;24.46;87.16;101393.44;4991003;28;20316;-75
2023/08/14 10:19:50;;;;;;;;;;;;;;;24.32;82.66;101387.84;4990241;28;19927;-75
2023/08/14 10:22:15;;;;;;;;;;;;;;;24.25;81.98;101378.69;5009107;28;19922;-78
2023/08/14 10:24:41;;;;;;;;;;;;;;;24.47;84.24;101376.78;4993444;28;19931;-71
2023/08/14 10:27:06;;;;;;;;;;;;;;;24.53;75.46;101364.16;5003690;28;19922;-76
2023/08/14 10:29:31;;;;;;;;;;;;;;;24.95;87.46;101353.25;5006933;28;19925;-77
2023/08/14 10:31:57;;;;;;;;;;;;;;;24.89;75.26;101349.44;5005209;28;20541;-76
2023/08/14 10:34:23;;;;;;;;;;;;;;;25.10;87.60;101344.88;4986231;28;19921;-77
2023/08/14 10:36:51;;;;;;;;;;;;;;;25.37;81.84;101339.50;4985635;28;19925;-77
2023/08/14 10:39:16;;;;;;;;;;;;;;;25.40;79.77;101334.41;4985679;28;20376;-76
2023/08/14 10:41:41;;;;;;;;;;;;;;;25.34;78.40;101335.22;5002669;28;20008;-75
2023/08/14 10:44:07;;;;;;;;;;;;;;;25.55;70.78;101338.94;4987360;28;19926;-78
2023/08/14 10:46:39;;;;;;;;;;;;;;;25.58;67.90;101335.75;4988117;28;21070;-77
2023/08/14 10:49:04;;;;;;;;;;;;;;;25.65;72.03;101328.38;4983359;28;19932;-75
2023/08/14 10:51:30;;;;;;;;;;;;;;;25.83;68.64;101325.03;4987921;28;19929;-76
2023/08/14 10:54:23;;;;;;;;;;;;;;;26.16;74.16;101329.75;4998281;28;20058;-78
2023/08/14 10:56:51;;;;;;;;;;;;;;;25.82;61.46;101334.34;4982598;28;20436;-77
2023/08/14 10:59:19;;;;;;;;;;;;;;;26.09;71.71;101328.84;4981418;28;19984;-77
2023/08/14 11:01:48;;;;;;;;;;;;;;;26.15;65.30;101336.31;5003578;28;19928;-73
2023/08/14 11:04:14;;;;;;;;;;;;;;;26.03;68.29;101336.06;5009402;28;19960;-81
2023/08/14 11:06:48;;;;;;;;;;;;;;;26.15;67.03;101336.31;4985096;28;20352;-78
2023/08/14 11:09:14;;;;;;;;;;;;;;;26.32;71.63;101336.72;5001381;28;19932;-75
2023/08/14 11:11:42;;;;;;;;;;;;;;;26.25;64.43;101338.63;4988521;28;19922;-75
2023/08/14 11:14:07;;;;;;;;;;;;;;;26.10;57.94;101341.56;4973657;28;20462;-73
2023/08/14 11:16:32;;;;;;;;;;;;;;;26.00;56.98;101341.97;4987339;28;19921;-78
2023/08/14 11:18:58;;;;;;;;;;;;;;;26.40;61.10;101319.13;4990111;28;19983;-75
2023/08/14 11:21:23;;;;;;;;;;;;;;;26.52;58.95;101327.59;5007755;28;20040;-78
2023/08/14 11:23:48;;;;;;;;;;;;;;;26.74;57.07;101327.31;4978253;28;19931;-76
2023/08/14 11:26:13;;;;;;;;;;;;;;;27.21;64.80;101330.78;4992346;28;19921;-76
2023/08/14 11:28:38;;;;;;;;;;;;;;;27.10;60.88;101331.50;4997963;28;19951;-74
2023/08/14 11:31:04;;;;;;;;;;;;;;;27.35;60.36;101341.75;4980189;28;19925;-72
2023/08/14 11:33:29;;;;;;;;;;;;;;;27.43;54.78;101337.91;5007640;28;20203;-77
2023/08/14 11:35:55;;;;;;;;;;;;;;;28.01;59.03;101333.31;5007392;28;20307;-77
2023/08/14 11:38:21;;;;;;;;;;;;;;;28.27;61.54;101338.66;5011554;28;20051;-74
2023/08/14 11:40:47;;;;;;;;;;;;;;;28.02;54.88;101327.56;5007467;28;20012;-75
2023/08/14 11:43:12;;;;;;;;;;;;;;;27.61;58.17;101327.00;4989827;28;19922;-77
2023/08/14 11:45:37;;;;;;;;;;;;;;;28.54;51.25;101327.34;4995009;28;19921;-75
2023/08/14 11:48:03;;;;;;;;;;;;;;;28.87;53.31;101319.78;5007803;28;19921;-75
2023/08/14 11:50:28;;;;;;;;;;;;;;;29.06;52.22;101328.06;4991992;28;20407;-76
2023/08/14 11:52:53;;;;;;;;;;;;;;;28.27;51.72;101332.25;5008655;28;19933;-78
2023/08/14 11:55:18;;;;;;;;;;;;;;;28.57;53.30;101331.56;4995592;28;20116;-75
2023/08/14 11:57:44;;;;;;;;;;;;;;;29.36;50.64;101332.78;4994312;28;19928;-76
2023/08/14 12:00:10;;;;;;;;;;;;;;;29.78;48.12;101330.09;5010252;28;20371;-76
2023/08/14 12:02:35;;;;;;;;;;;;;;;29.76;50.57;101327.53;4996488;28;19936;-76
2023/08/14 12:05:01;;;;;;;;;;;;;;;29.58;46.50;101328.44;5006634;28;21262;-77
2023/08/14 12:07:27;;;;;;;;;;;;;;;28.56;50.42;101314.16;5008211;28;20048;-77
2023/08/14 12:09:53;;;;;;;;;;;;;;;28.03;49.23;101322.91;4988205;28;20728;-79
2023/08/14 12:12:18;;;;;;;;;;;;;;;28.63;50.54;101316.84;4993537;28;19945;-73
2023/08/14 12:14:45;;;;;;;;;;;;;;;29.03;54.71;101321.09;5011194;28;20319;-77
2023/08/14 12:17:11;;;;;;;;;;;;;;;29.50;54.22;101312.19;4993937;28;20026;-76
2023/08/14 12:19:36;;;;;;;;;;;;;;;29.33;45.47;101312.81;4993578;28;19925;-78
2023/08/14 12:22:02;;;;;;;;;;;;;;;28.87;50.63;101305.97;5009983;28;19926;-78